Time;durP1;ratioP1;P1;durP2;ratioP2;P2;SDS_P1;SDS_P2;PMS_P1;PMS_P2;Temp;Humidity;BMP_temperature;BMP_pressure;BME280_temperature;BME280_humidity;BME280_pressure;Samples;Min_cycle;Max_cycle;Signal;HPM_P1;HPM_P2
2022/07/02 00:01:22;;;;;;;6.47;3.77;;;;;;;;;;4989661;28;20047;-60
2022/07/02 00:03:53;;;;;;;7.93;3.90;;;;;;;;;;4990386;28;20042;-60
2022/07/02 00:06:22;;;;;;;7.77;3.33;;;;;;;;;;4990070;28;20088;-60
2022/07/02 00:08:48;;;;;;;7.23;3.97;;;;;;;;;;4984625;28;20532;-60
2022/07/02 00:11:15;;;;;;;10.47;4.17;;;;;;;;;;4989725;28;20046;-61
2022/07/02 00:13:41;;;;;;;10.20;4.57;;;;;;;;;;4988821;28;20151;-60
2022/07/02 00:16:11;;;;;;;8.37;4.07;;;;;;;;;;4989828;28;20046;-61
2022/07/02 00:18:37;;;;;;;8.30;4.13;;;;;;;;;;4989696;28;20057;-60
2022/07/02 00:21:03;;;;;;;8.07;5.57;;;;;;;;;;4989459;28;20064;-61
2022/07/02 00:23:29;;;;;;;11.37;5.77;;;;;;;;;;4989730;28;20057;-60
2022/07/02 00:26:11;;;;;;;9.57;4.23;;;;;;;;;;4989847;28;20073;-61
2022/07/02 00:28:38;;;;;;;6.60;5.13;;;;;;;;;;4989381;28;20093;-60
2022/07/02 00:31:04;;;;;;;7.67;4.63;;;;;;;;;;4989878;28;20431;-61
2022/07/02 00:33:30;;;;;;;9.37;5.47;;;;;;;;;;4989512;28;20046;-63
2022/07/02 00:35:58;;;;;;;11.97;5.13;;;;;;;;;;4989348;28;20046;-63
2022/07/02 00:38:24;;;;;;;8.40;5.70;;;;;;;;;;4989587;28;20049;-63
2022/07/02 00:40:51;;;;;;;8.60;4.97;;;;;;;;;;4989136;28;20051;-61
2022/07/02 00:43:18;;;;;;;11.03;5.80;;;;;;;;;;4988399;28;20109;-63
2022/07/02 00:45:44;;;;;;;17.50;6.07;;;;;;;;;;4989697;28;20049;-63
2022/07/02 00:48:10;;;;;;;12.23;6.00;;;;;;;;;;4989618;28;20452;-63
2022/07/02 00:50:36;;;;;;;12.23;5.80;;;;;;;;;;4989524;28;20059;-63
2022/07/02 00:53:02;;;;;;;9.77;6.47;;;;;;;;;;4989168;28;20050;-63
2022/07/02 00:55:28;;;;;;;12.53;6.07;;;;;;;;;;4989053;28;20054;-63
2022/07/02 00:57:55;;;;;;;11.53;6.17;;;;;;;;;;4989597;28;20050;-63
2022/07/02 01:00:21;;;;;;;10.63;7.53;;;;;;;;;;4989426;28;20058;-64
2022/07/02 01:02:48;;;;;;;11.47;7.80;;;;;;;;;;4989293;28;20500;-63
2022/07/02 01:05:15;;;;;;;9.77;5.93;;;;;;;;;;4989206;28;20137;-63
2022/07/02 01:10:16;;;;;;;12.10;6.87;;;;;;;;;;4989049;28;20050;-62
2022/07/02 01:10:40;;;;;;;11.40;6.93;;;;;;;;;;4989538;28;20056;-63
2022/07/02 01:13:07;;;;;;;13.33;7.40;;;;;;;;;;4989395;28;20042;-63
2022/07/02 01:15:34;;;;;;;11.83;7.10;;;;;;;;;;4989191;28;20501;-63
2022/07/02 01:18:02;;;;;;;9.60;6.47;;;;;;;;;;4989278;28;20045;-63
2022/07/02 01:20:28;;;;;;;12.77;7.37;;;;;;;;;;4988920;28;20065;-63
2022/07/02 01:22:54;;;;;;;12.10;8.13;;;;;;;;;;4989244;28;20113;-63
2022/07/02 01:25:22;;;;;;;10.00;7.60;;;;;;;;;;4989358;28;20112;-60
2022/07/02 01:27:48;;;;;;;12.37;6.80;;;;;;;;;;4989075;28;20050;-61
2022/07/02 01:30:14;;;;;;;13.60;7.53;;;;;;;;;;4989394;28;20050;-60
2022/07/02 01:32:40;;;;;;;14.50;6.63;;;;;;;;;;4988744;28;20059;-60
2022/07/02 01:35:08;;;;;;;12.67;8.33;;;;;;;;;;4989139;28;20133;-60
2022/07/02 01:37:37;;;;;;;10.07;7.10;;;;;;;;;;4989025;28;20057;-60
2022/07/02 01:40:03;;;;;;;12.43;7.13;;;;;;;;;;4988905;28;20452;-60
2022/07/02 01:42:29;;;;;;;14.67;6.37;;;;;;;;;;4988773;28;20039;-61
2022/07/02 01:44:55;;;;;;;13.07;6.83;;;;;;;;;;4988471;28;20104;-60
2022/07/02 01:47:21;;;;;;;10.83;6.57;;;;;;;;;;4988561;28;20046;-60
2022/07/02 01:49:47;;;;;;;9.60;7.27;;;;;;;;;;4987810;28;20050;-61
2022/07/02 01:52:14;;;;;;;15.27;7.40;;;;;;;;;;4989074;28;20046;-61
2022/07/02 01:54:41;;;;;;;10.87;7.03;;;;;;;;;;4988952;28;20053;-61
2022/07/02 01:57:07;;;;;;;11.17;7.47;;;;;;;;;;4991477;28;20133;-61
2022/07/02 01:59:34;;;;;;;11.03;7.17;;;;;;;;;;4992420;28;20089;-63
2022/07/02 02:02:00;;;;;;;13.27;7.90;;;;;;;;;;4992068;28;20124;-63
2022/07/02 02:04:27;;;;;;;12.13;6.63;;;;;;;;;;4992810;28;20056;-62
2022/07/02 02:06:53;;;;;;;11.53;7.20;;;;;;;;;;4991694;28;20038;-62
2022/07/02 02:09:19;;;;;;;15.57;8.40;;;;;;;;;;4992090;28;20125;-62
2022/07/02 02:11:45;;;;;;;13.50;8.10;;;;;;;;;;4991560;28;20497;-63
2022/07/02 02:14:11;;;;;;;10.67;7.57;;;;;;;;;;4992015;28;20046;-63
2022/07/02 02:16:37;;;;;;;14.67;8.73;;;;;;;;;;4992110;28;20516;-63
2022/07/02 02:19:04;;;;;;;14.13;7.47;;;;;;;;;;4991690;28;20133;-63
2022/07/02 02:21:30;;;;;;;14.70;9.00;;;;;;;;;;4992000;28;20050;-62
2022/07/02 02:23:57;;;;;;;13.83;7.87;;;;;;;;;;4992049;28;20630;-62
2022/07/02 02:26:23;;;;;;;12.23;8.30;;;;;;;;;;4991768;28;20046;-63
2022/07/02 02:28:49;;;;;;;14.53;8.60;;;;;;;;;;4991525;28;20089;-63
2022/07/02 02:31:16;;;;;;;11.63;7.60;;;;;;;;;;4992087;28;20057;-62
2022/07/02 02:33:42;;;;;;;14.13;9.07;;;;;;;;;;4981860;28;20072;-63
2022/07/02 02:36:08;;;;;;;15.77;10.17;;;;;;;;;;4991560;28;20050;-62
2022/07/02 02:38:37;;;;;;;15.67;9.77;;;;;;;;;;4991261;28;20070;-63
2022/07/02 02:41:05;;;;;;;15.77;9.97;;;;;;;;;;4991426;28;20054;-63
2022/07/02 02:43:32;;;;;;;16.37;11.13;;;;;;;;;;4991608;28;20057;-63
2022/07/02 02:45:58;;;;;;;18.77;10.33;;;;;;;;;;4991998;28;20050;-63
2022/07/02 02:48:24;;;;;;;13.43;10.43;;;;;;;;;;4991812;28;20042;-63
2022/07/02 02:50:51;;;;;;;18.00;11.17;;;;;;;;;;4991141;28;20045;-63
2022/07/02 02:53:17;;;;;;;17.37;10.90;;;;;;;;;;4991391;28;20045;-63
2022/07/02 02:55:43;;;;;;;15.93;11.17;;;;;;;;;;4991570;28;20088;-63
2022/07/02 02:58:09;;;;;;;16.77;10.67;;;;;;;;;;4991033;28;20097;-63
2022/07/02 03:00:35;;;;;;;21.43;10.50;;;;;;;;;;4991249;28;20051;-63
2022/07/02 03:03:01;;;;;;;17.80;11.17;;;;;;;;;;4991109;28;20042;-63
2022/07/02 03:05:27;;;;;;;22.23;12.57;;;;;;;;;;4991271;28;20042;-63
2022/07/02 03:07:53;;;;;;;15.43;11.40;;;;;;;;;;4991160;28;20042;-63
2022/07/02 03:10:19;;;;;;;20.77;12.53;;;;;;;;;;4991413;28;20145;-63
2022/07/02 03:12:45;;;;;;;22.67;12.90;;;;;;;;;;4991437;28;20147;-63
2022/07/02 03:15:11;;;;;;;16.70;12.27;;;;;;;;;;4990748;28;20049;-62
2022/07/02 03:17:37;;;;;;;25.93;11.63;;;;;;;;;;4991030;28;20054;-63
2022/07/02 03:20:03;;;;;;;18.70;12.37;;;;;;;;;;4990838;28;20042;-63
2022/07/02 03:22:30;;;;;;;18.03;11.83;;;;;;;;;;4990574;28;20126;-63
2022/07/02 03:24:56;;;;;;;16.30;12.60;;;;;;;;;;4990746;28;20096;-62
2022/07/02 03:27:22;;;;;;;19.93;13.30;;;;;;;;;;4990217;28;20133;-63
2022/07/02 03:29:48;;;;;;;19.60;12.13;;;;;;;;;;4990684;28;20097;-63
2022/07/02 03:32:14;;;;;;;16.60;12.60;;;;;;;;;;4990532;28;20046;-63
2022/07/02 03:34:40;;;;;;;20.20;12.13;;;;;;;;;;4990345;28;20046;-63
2022/07/02 03:37:06;;;;;;;21.10;12.87;;;;;;;;;;4990428;28;20038;-62
2022/07/02 03:39:32;;;;;;;19.73;11.93;;;;;;;;;;4990215;28;20053;-63
2022/07/02 03:41:58;;;;;;;18.80;13.07;;;;;;;;;;4989673;28;20042;-63
2022/07/02 03:44:24;;;;;;;18.27;12.40;;;;;;;;;;4990518;28;20057;-63
2022/07/02 03:46:50;;;;;;;18.03;12.47;;;;;;;;;;4990030;28;20528;-63
2022/07/02 03:49:16;;;;;;;19.90;12.63;;;;;;;;;;4989946;28;20046;-63
2022/07/02 03:51:42;;;;;;;23.20;13.37;;;;;;;;;;4989615;28;20555;-63
2022/07/02 03:54:08;;;;;;;17.47;12.43;;;;;;;;;;4989611;28;20826;-63
2022/07/02 03:56:34;;;;;;;19.33;12.13;;;;;;;;;;4989584;28;20045;-62
2022/07/02 03:59:00;;;;;;;21.03;13.73;;;;;;;;;;4989415;28;20050;-63
2022/07/02 04:01:26;;;;;;;18.57;13.57;;;;;;;;;;4989504;28;20042;-63
2022/07/02 04:03:52;;;;;;;18.73;13.43;;;;;;;;;;4990299;28;20056;-63
2022/07/02 04:06:18;;;;;;;22.40;13.23;;;;;;;;;;4989151;28;20042;-63
2022/07/02 04:08:45;;;;;;;19.97;14.27;;;;;;;;;;4989659;28;20042;-64
2022/07/02 04:11:11;;;;;;;18.50;12.53;;;;;;;;;;4989601;28;20156;-63
2022/07/02 04:13:37;;;;;;;17.70;14.03;;;;;;;;;;4989648;28;20053;-63
2022/07/02 04:16:03;;;;;;;23.57;14.53;;;;;;;;;;4989717;28;20417;-63
2022/07/02 04:18:29;;;;;;;18.87;13.13;;;;;;;;;;4989282;28;20090;-63
2022/07/02 04:20:55;;;;;;;21.90;14.37;;;;;;;;;;4989183;28;20140;-63
2022/07/02 04:23:21;;;;;;;22.10;12.53;;;;;;;;;;4988763;28;20054;-63
2022/07/02 04:25:47;;;;;;;20.77;13.33;;;;;;;;;;4989669;28;20054;-63
2022/07/02 04:28:13;;;;;;;19.00;14.13;;;;;;;;;;4989448;28;20102;-63
2022/07/02 04:30:39;;;;;;;17.20;11.53;;;;;;;;;;4989568;28;20061;-63
2022/07/02 04:33:05;;;;;;;18.67;12.73;;;;;;;;;;4988819;28;20043;-63
2022/07/02 04:35:31;;;;;;;16.73;12.57;;;;;;;;;;4989376;28;20412;-63
2022/07/02 04:37:57;;;;;;;16.37;12.50;;;;;;;;;;4989699;28;20062;-63
2022/07/02 04:40:23;;;;;;;21.70;12.93;;;;;;;;;;4989059;28;20046;-63
2022/07/02 04:42:49;;;;;;;18.57;11.67;;;;;;;;;;4989344;28;20039;-63
2022/07/02 04:45:15;;;;;;;17.80;12.37;;;;;;;;;;4989051;28;20531;-63
2022/07/02 04:47:41;;;;;;;20.30;13.53;;;;;;;;;;4989108;28;20508;-63
2022/07/02 04:50:07;;;;;;;18.70;11.03;;;;;;;;;;4989036;28;20534;-63
2022/07/02 04:52:33;;;;;;;16.20;10.90;;;;;;;;;;4988905;28;20401;-63
2022/07/02 04:54:59;;;;;;;14.80;10.30;;;;;;;;;;4989218;28;20097;-63
2022/07/02 04:57:25;;;;;;;16.97;10.03;;;;;;;;;;4989234;28;20050;-63
2022/07/02 04:59:51;;;;;;;16.00;10.40;;;;;;;;;;4989032;28;20050;-63
2022/07/02 05:02:18;;;;;;;16.73;10.73;;;;;;;;;;4988967;28;20089;-66
2022/07/02 05:04:44;;;;;;;10.83;8.63;;;;;;;;;;4989130;28;20137;-63
2022/07/02 05:07:10;;;;;;;11.80;8.97;;;;;;;;;;4989268;28;20129;-63
2022/07/02 05:09:36;;;;;;;14.97;9.53;;;;;;;;;;4989072;28;20046;-63
2022/07/02 05:12:03;;;;;;;12.60;8.10;;;;;;;;;;4989215;28;20049;-63
2022/07/02 05:14:29;;;;;;;13.23;7.27;;;;;;;;;;4989298;28;20050;-63
2022/07/02 05:16:55;;;;;;;10.57;7.83;;;;;;;;;;4989178;28;20085;-63
2022/07/02 05:19:21;;;;;;;10.87;8.83;;;;;;;;;;4988776;28;20050;-63
2022/07/02 05:21:47;;;;;;;14.87;8.30;;;;;;;;;;4988375;28;20058;-63
2022/07/02 05:24:13;;;;;;;12.50;8.10;;;;;;;;;;4988851;28;20440;-63
2022/07/02 05:26:39;;;;;;;12.10;7.17;;;;;;;;;;4988532;28;20050;-63
2022/07/02 05:29:05;;;;;;;13.23;7.57;;;;;;;;;;4987900;28;20117;-63
2022/07/02 05:31:31;;;;;;;12.13;7.30;;;;;;;;;;4988430;28;20182;-63
2022/07/02 05:33:57;;;;;;;15.10;8.37;;;;;;;;;;4988531;28;21388;-64
2022/07/02 05:36:23;;;;;;;12.33;7.03;;;;;;;;;;4988033;28;20038;-63
2022/07/02 05:38:49;;;;;;;10.90;7.17;;;;;;;;;;4991655;28;20042;-63
2022/07/02 05:41:15;;;;;;;10.40;6.10;;;;;;;;;;4987192;28;20513;-63
2022/07/02 05:43:41;;;;;;;13.87;7.33;;;;;;;;;;4991336;28;20218;-63
2022/07/02 05:46:07;;;;;;;15.47;6.23;;;;;;;;;;4991028;28;20081;-63
2022/07/02 05:48:36;;;;;;;8.20;6.10;;;;;;;;;;4991327;28;20042;-63
2022/07/02 05:51:02;;;;;;;10.90;7.50;;;;;;;;;;4990971;28;20428;-63
2022/07/02 05:53:28;;;;;;;9.10;5.57;;;;;;;;;;4991681;28;20048;-63
2022/07/02 05:55:54;;;;;;;8.30;5.33;;;;;;;;;;4992253;28;20497;-63
2022/07/02 05:58:20;;;;;;;5.27;4.77;;;;;;;;;;4992181;28;20046;-63
2022/07/02 06:00:46;;;;;;;6.17;4.77;;;;;;;;;;5015886;28;20050;-63
2022/07/02 06:03:12;;;;;;;8.03;4.50;;;;;;;;;;4991659;28;20046;-63
2022/07/02 06:08:23;;;;;;;10.40;5.27;;;;;;;;;;4991736;28;20046;-63
2022/07/02 06:10:49;;;;;;;9.83;4.87;;;;;;;;;;4991932;28;20046;-63
2022/07/02 06:13:16;;;;;;;12.00;4.83;;;;;;;;;;4992025;28;20052;-63
2022/07/02 06:15:42;;;;;;;8.50;4.30;;;;;;;;;;4991823;28;20050;-63
2022/07/02 06:18:08;;;;;;;5.50;4.03;;;;;;;;;;4992298;28;20057;-63
2022/07/02 06:20:35;;;;;;;8.10;4.50;;;;;;;;;;4991787;28;20061;-63
2022/07/02 06:23:01;;;;;;;10.10;4.23;;;;;;;;;;4991752;28;20058;-63
2022/07/02 06:25:27;;;;;;;10.37;4.20;;;;;;;;;;4992034;28;20065;-64
2022/07/02 06:27:53;;;;;;;5.77;3.63;;;;;;;;;;4991687;28;20555;-63
2022/07/02 06:30:19;;;;;;;7.90;3.50;;;;;;;;;;4991937;28;20046;-64
2022/07/02 06:32:45;;;;;;;7.93;3.77;;;;;;;;;;4989100;28;20038;-63
2022/07/02 06:35:11;;;;;;;8.17;3.50;;;;;;;;;;4968997;28;20042;-63
2022/07/02 06:37:37;;;;;;;7.60;3.37;;;;;;;;;;4987008;28;20125;-62
2022/07/02 06:40:04;;;;;;;11.03;3.70;;;;;;;;;;4989679;28;20068;-63
2022/07/02 06:42:30;;;;;;;4.40;2.70;;;;;;;;;;4988610;28;20089;-63
2022/07/02 06:44:57;;;;;;;4.30;2.47;;;;;;;;;;4989354;28;20042;-63
2022/07/02 06:47:24;;;;;;;10.63;4.47;;;;;;;;;;4989650;28;20093;-63
2022/07/02 06:49:50;;;;;;;5.93;3.10;;;;;;;;;;4989962;28;20468;-63
2022/07/02 06:52:17;;;;;;;5.37;3.17;;;;;;;;;;4986175;28;20057;-62
2022/07/02 06:54:43;;;;;;;9.07;2.73;;;;;;;;;;4989483;28;20077;-62
2022/07/02 06:57:09;;;;;;;5.77;2.17;;;;;;;;;;4989410;28;20572;-62
2022/07/02 06:59:35;;;;;;;5.93;2.40;;;;;;;;;;4972501;28;20567;-62
2022/07/02 07:02:01;;;;;;;5.50;2.60;;;;;;;;;;4975725;28;20034;-62
2022/07/02 07:04:27;;;;;;;6.17;2.30;;;;;;;;;;4990789;28;20572;-62
2022/07/02 07:06:59;;;;;;;5.20;1.87;;;;;;;;;;4991090;28;20045;-62
2022/07/02 07:09:26;;;;;;;6.73;2.97;;;;;;;;;;4990360;28;20052;-62
2022/07/02 07:11:52;;;;;;;6.17;2.90;;;;;;;;;;4990580;28;20050;-63
2022/07/02 07:14:19;;;;;;;6.73;2.20;;;;;;;;;;4989065;28;20144;-62
2022/07/02 07:16:45;;;;;;;5.63;2.03;;;;;;;;;;4988982;28;20057;-62
2022/07/02 07:19:11;;;;;;;6.13;2.10;;;;;;;;;;4988837;28;20049;-62
2022/07/02 07:21:39;;;;;;;6.30;2.40;;;;;;;;;;4988614;28;20137;-63
2022/07/02 07:24:05;;;;;;;5.53;2.00;;;;;;;;;;4989465;28;20054;-62
2022/07/02 07:26:33;;;;;;;5.47;1.80;;;;;;;;;;4990531;28;20113;-62
2022/07/02 07:29:00;;;;;;;5.33;2.13;;;;;;;;;;4989697;28;20736;-63
2022/07/02 07:31:26;;;;;;;5.07;1.50;;;;;;;;;;4988143;28;20053;-62
2022/07/02 07:33:53;;;;;;;3.00;1.53;;;;;;;;;;4989156;28;20058;-62
2022/07/02 07:36:20;;;;;;;3.70;1.50;;;;;;;;;;4989648;28;20038;-62
2022/07/02 07:38:46;;;;;;;3.70;1.63;;;;;;;;;;4990095;28;20085;-59
2022/07/02 07:41:12;;;;;;;6.03;1.77;;;;;;;;;;4990095;28;20173;-60
2022/07/02 07:43:38;;;;;;;4.10;1.40;;;;;;;;;;4989958;28;20057;-60
2022/07/02 07:46:04;;;;;;;4.20;1.80;;;;;;;;;;4989869;28;20054;-62
2022/07/02 07:48:30;;;;;;;3.07;1.70;;;;;;;;;;4990229;28;20505;-62
2022/07/02 07:50:57;;;;;;;4.57;1.73;;;;;;;;;;4989702;28;20049;-61
2022/07/02 07:53:23;;;;;;;3.47;1.40;;;;;;;;;;4989945;28;20461;-62
2022/07/02 07:55:49;;;;;;;5.90;1.43;;;;;;;;;;4989219;28;20042;-62
2022/07/02 07:58:15;;;;;;;5.07;1.70;;;;;;;;;;4989493;28;20050;-62
2022/07/02 08:00:41;;;;;;;3.13;1.30;;;;;;;;;;4989660;28;20145;-62
2022/07/02 08:03:08;;;;;;;2.10;1.20;;;;;;;;;;4989810;28;20046;-63
2022/07/02 08:05:34;;;;;;;2.53;0.90;;;;;;;;;;4989952;28;20082;-62
2022/07/02 08:08:00;;;;;;;3.37;1.20;;;;;;;;;;4989685;28;20132;-62
2022/07/02 08:10:26;;;;;;;4.67;1.20;;;;;;;;;;4990509;28;20046;-62
2022/07/02 08:12:52;;;;;;;4.40;1.10;;;;;;;;;;4989067;28;20054;-61
2022/07/02 08:15:18;;;;;;;6.63;1.20;;;;;;;;;;4988541;28;20050;-61
2022/07/02 08:17:44;;;;;;;4.10;1.10;;;;;;;;;;4971351;28;20045;-61
2022/07/02 08:20:11;;;;;;;4.93;1.00;;;;;;;;;;5001724;28;20430;-61
2022/07/02 08:22:37;;;;;;;3.90;0.87;;;;;;;;;;4992039;28;20058;-61
2022/07/02 08:25:04;;;;;;;5.20;1.03;;;;;;;;;;4976022;28;20082;-62
2022/07/02 08:27:30;;;;;;;2.97;0.90;;;;;;;;;;4983200;28;20085;-61
2022/07/02 08:29:56;;;;;;;3.50;0.80;;;;;;;;;;4990445;28;20083;-61
2022/07/02 08:32:22;;;;;;;3.23;1.00;;;;;;;;;;4990065;28;20167;-58
2022/07/02 08:34:48;;;;;;;2.83;0.70;;;;;;;;;;5002845;28;20566;-58
2022/07/02 08:37:15;;;;;;;3.57;1.00;;;;;;;;;;4982943;28;20537;-59
2022/07/02 08:39:41;;;;;;;3.27;0.70;;;;;;;;;;4978760;28;20500;-58
2022/07/02 08:42:08;;;;;;;4.03;0.90;;;;;;;;;;4987089;28;20046;-59
2022/07/02 08:44:35;;;;;;;2.67;0.83;;;;;;;;;;4989335;28;20061;-59
2022/07/02 08:47:03;;;;;;;3.17;0.70;;;;;;;;;;4987413;28;20043;-59
2022/07/02 08:49:31;;;;;;;1.77;0.73;;;;;;;;;;4988921;28;20544;-59
2022/07/02 08:52:04;;;;;;;3.17;0.80;;;;;;;;;;4989630;28;20050;-59
2022/07/02 08:54:33;;;;;;;2.23;0.63;;;;;;;;;;4987625;28;20413;-59
2022/07/02 08:57:01;;;;;;;2.97;0.73;;;;;;;;;;4988524;28;20377;-59
2022/07/02 08:59:27;;;;;;;3.60;1.10;;;;;;;;;;4987500;28;20148;-59
2022/07/02 09:01:54;;;;;;;2.87;0.70;;;;;;;;;;4987990;28;20507;-59
2022/07/02 09:04:20;;;;;;;2.67;0.67;;;;;;;;;;4989105;28;20069;-60
2022/07/02 09:06:52;;;;;;;2.17;0.80;;;;;;;;;;4994768;28;20592;-59
2022/07/02 09:09:17;;;;;;;1.13;0.73;;;;;;;;;;4995079;28;20050;-60
2022/07/02 09:11:44;;;;;;;1.93;0.70;;;;;;;;;;4994257;28;20046;-59
2022/07/02 09:14:10;;;;;;;1.53;0.50;;;;;;;;;;4995126;28;20423;-59
2022/07/02 09:16:37;;;;;;;2.97;0.47;;;;;;;;;;4993264;28;20761;-59
2022/07/02 09:19:04;;;;;;;2.47;0.70;;;;;;;;;;4995510;28;20162;-59
2022/07/02 09:21:40;;;;;;;2.20;0.80;;;;;;;;;;4993789;28;20043;-60
2022/07/02 09:24:06;;;;;;;3.45;0.93;;;;;;;;;;4994101;28;20073;-60
2022/07/02 09:26:32;;;;;;;1.58;0.40;;;;;;;;;;5003494;28;20536;-61
2022/07/02 09:28:59;;;;;;;2.28;0.47;;;;;;;;;;5007303;28;20066;-60
2022/07/02 09:31:26;;;;;;;2.75;0.70;;;;;;;;;;4992809;28;20054;-61
2022/07/02 09:33:53;;;;;;;1.35;0.52;;;;;;;;;;4994374;28;20034;-60
2022/07/02 09:36:20;;;;;;;2.08;0.50;;;;;;;;;;4994523;28;20054;-60
2022/07/02 09:38:47;;;;;;;2.05;0.60;;;;;;;;;;4995067;28;20092;-61
2022/07/02 09:41:15;;;;;;;3.63;0.75;;;;;;;;;;4994700;28;20050;-60
2022/07/02 09:43:41;;;;;;;2.78;0.68;;;;;;;;;;4995323;28;20039;-61
2022/07/02 09:46:15;;;;;;;1.73;0.50;;;;;;;;;;4994251;28;20038;-60
2022/07/02 09:48:41;;;;;;;2.97;0.60;;;;;;;;;;4994160;28;20093;-61
2022/07/02 09:51:07;;;;;;;2.17;0.52;;;;;;;;;;4990027;28;20104;-60
2022/07/02 09:53:33;;;;;;;1.70;0.55;;;;;;;;;;4995384;28;20047;-60
2022/07/02 09:56:00;;;;;;;1.70;0.60;;;;;;;;;;4991386;28;20185;-60
2022/07/02 09:58:27;;;;;;;2.85;0.68;;;;;;;;;;4994702;28;20049;-60
2022/07/02 10:00:54;;;;;;;3.17;0.85;;;;;;;;;;4993530;28;20408;-60
2022/07/02 10:03:20;;;;;;;1.83;0.70;;;;;;;;;;4987852;28;20042;-60
2022/07/02 10:05:49;;;;;;;1.77;0.55;;;;;;;;;;4986527;28;20050;-60
2022/07/02 10:08:15;;;;;;;1.92;0.70;;;;;;;;;;4994822;28;20137;-60
2022/07/02 10:10:42;;;;;;;2.35;0.80;;;;;;;;;;4994046;28;20047;-61
2022/07/02 10:13:12;;;;;;;4.38;0.98;;;;;;;;;;4994674;28;20538;-60
2022/07/02 10:15:58;;;;;;;3.22;0.68;;;;;;;;;;4994184;28;20050;-61
2022/07/02 10:18:24;;;;;;;4.13;0.50;;;;;;;;;;4987160;28;20392;-60
2022/07/02 10:20:52;;;;;;;4.32;0.95;;;;;;;;;;4991634;28;20060;-60
2022/07/02 10:23:19;;;;;;;3.03;0.70;;;;;;;;;;4991920;28;20062;-61
2022/07/02 10:25:46;;;;;;;4.38;0.90;;;;;;;;;;4991554;28;20104;-61
2022/07/02 10:28:12;;;;;;;1.73;0.63;;;;;;;;;;4992050;28;20050;-60
2022/07/02 10:30:39;;;;;;;1.50;0.70;;;;;;;;;;4991462;28;20057;-61
2022/07/02 10:33:14;;;;;;;3.60;0.60;;;;;;;;;;4991055;28;20042;-60
2022/07/02 10:35:41;;;;;;;3.08;0.73;;;;;;;;;;4991521;28;20054;-61
2022/07/02 10:38:07;;;;;;;2.22;0.80;;;;;;;;;;4990930;28;20050;-60
2022/07/02 10:40:33;;;;;;;3.28;0.63;;;;;;;;;;4991505;28;20050;-61
2022/07/02 10:43:01;;;;;;;4.20;1.00;;;;;;;;;;4991387;28;20051;-61
2022/07/02 10:45:27;;;;;;;1.90;0.75;;;;;;;;;;4991069;28;20117;-61
2022/07/02 10:47:54;;;;;;;3.47;0.77;;;;;;;;;;4990929;28;20038;-61
2022/07/02 10:50:20;;;;;;;3.40;0.75;;;;;;;;;;4990767;28;20081;-60
2022/07/02 10:52:50;;;;;;;2.25;0.50;;;;;;;;;;4990280;28;20042;-61
2022/07/02 10:55:26;;;;;;;4.40;0.90;;;;;;;;;;4991611;28;20096;-60
2022/07/02 10:57:56;;;;;;;2.72;1.00;;;;;;;;;;4990753;28;20073;-60
2022/07/02 11:00:33;;;;;;;3.30;0.90;;;;;;;;;;4991100;28;20462;-61
2022/07/02 11:03:10;;;;;;;5.22;0.70;;;;;;;;;;4990961;28;20046;-60
2022/07/02 11:05:48;;;;;;;1.98;0.60;;;;;;;;;;4991166;28;20095;-60
2022/07/02 11:08:34;;;;;;;3.92;0.93;;;;;;;;;;4990869;28;20050;-60
2022/07/02 11:11:00;;;;;;;3.25;0.75;;;;;;;;;;4990362;28;20077;-60
2022/07/02 11:13:34;;;;;;;4.50;0.98;;;;;;;;;;4990956;28;20046;-60
2022/07/02 11:16:00;;;;;;;3.10;0.90;;;;;;;;;;4990425;28;20042;-60
2022/07/02 11:18:29;;;;;;;2.53;0.70;;;;;;;;;;4991112;28;20094;-61
2022/07/02 11:20:55;;;;;;;4.15;0.95;;;;;;;;;;4989640;28;20108;-60
2022/07/02 11:23:21;;;;;;;1.55;0.45;;;;;;;;;;4990435;28;20066;-60
2022/07/02 11:25:47;;;;;;;2.00;0.70;;;;;;;;;;4990469;28;20401;-60
2022/07/02 11:28:14;;;;;;;3.30;1.02;;;;;;;;;;4990160;28;20497;-61
2022/07/02 11:30:40;;;;;;;3.20;1.00;;;;;;;;;;4990153;28;20493;-61
2022/07/02 11:33:15;;;;;;;3.00;0.63;;;;;;;;;;4989991;28;20043;-60
2022/07/02 11:35:43;;;;;;;5.00;0.95;;;;;;;;;;4990140;28;20087;-59
2022/07/02 11:38:09;;;;;;;3.63;0.80;;;;;;;;;;4990303;28;20414;-60
2022/07/02 11:40:35;;;;;;;3.00;0.68;;;;;;;;;;4989874;28;20046;-60
2022/07/02 11:43:02;;;;;;;1.83;0.70;;;;;;;;;;4989818;28;20536;-60
2022/07/02 11:45:29;;;;;;;3.05;0.90;;;;;;;;;;4990186;28;20061;-60
2022/07/02 11:47:55;;;;;;;2.90;0.90;;;;;;;;;;4989651;28;20051;-60
2022/07/02 11:50:35;;;;;;;2.70;0.77;;;;;;;;;;4990176;28;20053;-60
2022/07/02 11:53:02;;;;;;;2.40;0.60;;;;;;;;;;4989831;28;20464;-60
2022/07/02 11:55:28;;;;;;;2.08;0.50;;;;;;;;;;4990454;28;20045;-60
2022/07/02 11:57:54;;;;;;;2.85;0.80;;;;;;;;;;4989731;28;20109;-60
2022/07/02 12:00:20;;;;;;;4.72;1.10;;;;;;;;;;4990566;28;20049;-60
2022/07/02 12:02:46;;;;;;;2.03;0.63;;;;;;;;;;4990102;28;20057;-60
2022/07/02 12:05:16;;;;;;;1.70;0.68;;;;;;;;;;4990168;28;20136;-60
2022/07/02 12:07:43;;;;;;;2.88;0.60;;;;;;;;;;4989864;28;20389;-60
2022/07/02 12:10:10;;;;;;;2.25;0.60;;;;;;;;;;4989215;28;20047;-60
2022/07/02 12:12:36;;;;;;;2.78;0.60;;;;;;;;;;4989640;28;20050;-60
2022/07/02 12:15:03;;;;;;;1.60;0.68;;;;;;;;;;4989634;28;20046;-60
2022/07/02 12:17:30;;;;;;;2.00;0.63;;;;;;;;;;4989437;28;20065;-60
2022/07/02 12:19:56;;;;;;;2.05;0.65;;;;;;;;;;4989427;28;20053;-60
2022/07/02 12:22:25;;;;;;;2.95;1.08;;;;;;;;;;4989423;28;20058;-60
2022/07/02 12:24:52;;;;;;;3.38;0.85;;;;;;;;;;4989013;28;20514;-60
2022/07/02 12:27:18;;;;;;;1.95;0.60;;;;;;;;;;4989532;28;20129;-60
2022/07/02 12:29:53;;;;;;;1.55;0.52;;;;;;;;;;4989572;28;20042;-60
2022/07/02 12:32:26;;;;;;;1.98;0.73;;;;;;;;;;4989329;28;20409;-60
2022/07/02 12:34:56;;;;;;;6.25;0.88;;;;;;;;;;4989179;28;20428;-60
2022/07/02 12:37:26;;;;;;;2.65;0.70;;;;;;;;;;4988918;28;20038;-60
2022/07/02 12:40:04;;;;;;;1.95;0.80;;;;;;;;;;4988342;28;20050;-60
2022/07/02 12:42:34;;;;;;;2.95;0.95;;;;;;;;;;4988373;28;20039;-60
2022/07/02 12:45:01;;;;;;;2.63;0.95;;;;;;;;;;4989210;28;20038;-61
2022/07/02 12:47:35;;;;;;;4.57;1.70;;;;;;;;;;4988965;28;20042;-60
2022/07/02 12:50:02;;;;;;;3.20;0.80;;;;;;;;;;4988958;28;20049;-61
2022/07/02 12:52:30;;;;;;;5.50;1.45;;;;;;;;;;4988728;28;20086;-61
2022/07/02 12:54:56;;;;;;;3.85;1.00;;;;;;;;;;4989194;28;20050;-61
2022/07/02 12:57:23;;;;;;;3.08;0.90;;;;;;;;;;4988376;28;20133;-61
2022/07/02 12:59:51;;;;;;;6.13;0.88;;;;;;;;;;4988447;28;20050;-61
2022/07/02 13:02:21;;;;;;;2.13;0.70;;;;;;;;;;4989094;28;20493;-61
2022/07/02 13:04:47;;;;;;;2.90;0.82;;;;;;;;;;4988665;28;20042;-61
2022/07/02 13:07:15;;;;;;;3.63;0.80;;;;;;;;;;5006442;28;20050;-61
2022/07/02 13:09:41;;;;;;;5.43;0.70;;;;;;;;;;5007268;28;20419;-61
2022/07/02 13:12:07;;;;;;;3.13;0.77;;;;;;;;;;5007470;28;20041;-61
2022/07/02 13:14:33;;;;;;;2.97;0.82;;;;;;;;;;5008456;28;20042;-61
2022/07/02 13:16:59;;;;;;;4.35;1.33;;;;;;;;;;5008714;28;20042;-61
2022/07/02 13:19:25;;;;;;;1.95;0.77;;;;;;;;;;5008259;28;20050;-61
2022/07/02 13:21:51;;;;;;;3.72;0.82;;;;;;;;;;5007920;28;20727;-59
2022/07/02 13:24:17;;;;;;;2.85;0.90;;;;;;;;;;5008355;28;20082;-59
2022/07/02 13:26:43;;;;;;;2.85;1.10;;;;;;;;;;5008375;28;20124;-59
2022/07/02 13:29:09;;;;;;;1.48;0.65;;;;;;;;;;5007469;28;20500;-59
2022/07/02 13:31:35;;;;;;;2.70;0.88;;;;;;;;;;5008078;28;20042;-59
2022/07/02 13:34:01;;;;;;;2.03;0.80;;;;;;;;;;5007955;28;20519;-59
2022/07/02 13:36:27;;;;;;;2.40;0.93;;;;;;;;;;5007511;28;20045;-60
2022/07/02 13:38:53;;;;;;;4.80;1.10;;;;;;;;;;5007566;28;20057;-59
2022/07/02 13:41:20;;;;;;;3.55;0.90;;;;;;;;;;5007855;28;20104;-59
2022/07/02 13:43:46;;;;;;;2.00;0.90;;;;;;;;;;4995502;28;20050;-60
2022/07/02 13:46:12;;;;;;;2.95;1.10;;;;;;;;;;4998200;28;20046;-59
2022/07/02 13:48:38;;;;;;;2.92;0.60;;;;;;;;;;4987857;28;20050;-59
2022/07/02 13:51:04;;;;;;;1.92;0.68;;;;;;;;;;4989440;28;20100;-60
2022/07/02 13:53:30;;;;;;;2.47;0.65;;;;;;;;;;4992589;28;20097;-59
2022/07/02 13:55:56;;;;;;;3.72;0.80;;;;;;;;;;4992612;28;20077;-60
2022/07/02 13:58:22;;;;;;;3.55;1.00;;;;;;;;;;4992365;28;20061;-59
2022/07/02 14:00:48;;;;;;;2.88;0.70;;;;;;;;;;4991847;28;20061;-59
2022/07/02 14:03:14;;;;;;;2.70;0.90;;;;;;;;;;4992209;28;20089;-60
2022/07/02 14:05:40;;;;;;;3.65;0.80;;;;;;;;;;4992347;28;20057;-60
2022/07/02 14:08:06;;;;;;;4.15;0.70;;;;;;;;;;4992228;28;20039;-59
2022/07/02 14:10:32;;;;;;;2.13;0.80;;;;;;;;;;4991979;28;20053;-59
2022/07/02 14:12:58;;;;;;;3.13;0.60;;;;;;;;;;4991555;28;20043;-60
2022/07/02 14:15:24;;;;;;;4.75;0.80;;;;;;;;;;4992189;28;20089;-59
2022/07/02 14:17:50;;;;;;;3.10;1.02;;;;;;;;;;4992259;28;20078;-60
2022/07/02 14:20:16;;;;;;;3.45;1.10;;;;;;;;;;4992252;28;20568;-59
2022/07/02 14:22:43;;;;;;;3.30;0.65;;;;;;;;;;4991910;28;20091;-60
2022/07/02 14:25:09;;;;;;;2.78;0.90;;;;;;;;;;4990872;28;20049;-59
2022/07/02 14:27:35;;;;;;;3.40;0.70;;;;;;;;;;4991606;28;20046;-60
2022/07/02 14:30:01;;;;;;;5.15;0.80;;;;;;;;;;4992071;28;20058;-59
2022/07/02 14:32:27;;;;;;;2.13;0.73;;;;;;;;;;4991849;28;20066;-59
2022/07/02 14:34:53;;;;;;;2.47;0.80;;;;;;;;;;4991403;28;20038;-59
2022/07/02 14:37:21;;;;;;;1.88;0.82;;;;;;;;;;4991899;28;20038;-59